Sarfaq Ittuk — OWDD — position and weather

sailwx.info

Track history (hours):
 
Tides and Currents Weather Stations Pressure Air Temp Water Temp Dewpoint Dewpoint Depression Visibility Wind Speed Wind Dir Waves Ship Positions

Sarfaq Ittuk

Last reported at 2019-Jun-15 14:18 UTC. Time now 2019-Jun-17 19:35 UTC.
Position N 65°52' W 053°32'.

Length 73 m; beam 11.1 m; draft 3.7 m.

Type: Passenger vessel. MMSI: 331000499.

Date/timePositionNaut miles runAvg speedWind from/ knotsBaromVisibWave heightAir tempDewpointWater temp
2019-Jun-15 14:18N 65°52' W 053°32'6 5.2
2019-Jun-15 13:05N 65°49' W 053°19'910.9
2019-Jun-15 12:17N 65°40' W 053°18'512.4
2019-Jun-15 11:54N 65°39' W 053°07'15 8.1
2019-Jun-15 10:02N 65°25' W 052°54'0 1.8
2019-Jun-15 10:00N 65°25' W 052°54'0 0.0
2019-Jun-15 09:26N 65°25' W 052°54'0 0.0
2019-Jun-15 08:55N 65°25' W 052°54'11 9.0
2019-Jun-15 07:42N 65°14' W 052°51'4 9.5
2019-Jun-15 07:17N 65°10' W 052°51'3 9.6
2019-Jun-15 07:00N 65°07' W 052°50'5 9.1
2019-Jun-15 06:30N 65°03' W 052°48'5 9.6
2019-Jun-15 06:00N 64°58' W 052°46'5 9.9
2019-Jun-15 05:30N 64°53' W 052°44'5 9.9
2019-Jun-15 05:00N 64°48' W 052°41'5 9.9
2019-Jun-15 04:30N 64°44' W 052°39'510.1
2019-Jun-15 04:00N 64°39' W 052°37'5 9.9
2019-Jun-15 03:30N 64°34' W 052°35'5 9.9
2019-Jun-15 03:00N 64°29' W 052°33'5 9.8
2019-Jun-15 02:30N 64°24' W 052°30'5 9.7
2019-Jun-15 02:01N 64°19' W 052°27'5 9.6
2019-Jun-15 01:30N 64°15' W 052°25'5 9.6
2019-Jun-15 01:00N 64°10' W 052°22'511.0
2019-Jun-15 00:31N 64°06' W 052°14'4 8.9
2019-Jun-15 00:01N 64°05' W 052°04'612.5
2019-Jun-14 23:31N 64°08' W 051°51'4 8.6
2019-Jun-14 23:00N 64°10' W 051°43'0 0.0
2019-Jun-14 22:30N 64°10' W 051°43'0 0.0
2019-Jun-14 22:00N 64°10' W 051°43'0 0.0
2019-Jun-14 21:30N 64°10' W 051°43'0 0.0
2019-Jun-14 21:01N 64°10' W 051°43'0 0.0
2019-Jun-14 20:30N 64°10' W 051°43'0 0.0
2019-Jun-14 20:00N 64°10' W 051°43'0 0.0
2019-Jun-14 19:30N 64°10' W 051°43'0 0.0
2019-Jun-14 19:00N 64°10' W 051°43'0 0.0
2019-Jun-14 18:30N 64°10' W 051°43'0 0.0
2019-Jun-14 18:01N 64°10' W 051°43'0 0.0
2019-Jun-14 17:31N 64°10' W 051°43'0 0.0
2019-Jun-14 17:01N 64°10' W 051°43'0 0.0
2019-Jun-14 16:30N 64°10' W 051°43'0 0.0
2019-Jun-14 16:00N 64°10' W 051°43'0 0.0
2019-Jun-14 15:30N 64°10' W 051°43'0 0.0
2019-Jun-14 15:00N 64°10' W 051°43'0 0.0
2019-Jun-14 14:30N 64°10' W 051°43'0 0.0
2019-Jun-14 14:00N 64°10' W 051°43'0 0.0
2019-Jun-14 13:30N 64°10' W 051°43'0 0.0
2019-Jun-14 13:00N 64°10' W 051°43'0 0.0
2019-Jun-14 12:31N 64°10' W 051°43'0 0.0
2019-Jun-14 12:00N 64°10' W 051°43'0 0.0
2019-Jun-14 11:30N 64°10' W 051°43'0 0.0
2019-Jun-14 11:00N 64°10' W 051°43'0 0.0
2019-Jun-14 10:30N 64°10' W 051°43'0 0.0
2019-Jun-14 10:00N 64°10' W 051°43'0 0.0
2019-Jun-14 09:30N 64°10' W 051°43'3 7.0
2019-Jun-14 09:00N 64°07' W 051°40'510.1
2019-Jun-14 08:30N 64°02' W 051°39'5 9.7
2019-Jun-14 08:01N 63°57' W 051°37'510.1
2019-Jun-14 07:30N 63°53' W 051°34'5 9.6
2019-Jun-14 07:00N 63°48' W 051°35'510.4
2019-Jun-14 06:30N 63°43' W 051°37'  
2019-Jun-11 15:06N 63°26' W 051°30'312.0
2019-Jun-11 14:49N 63°29' W 051°33'1511.5
2019-Jun-11 13:28N 63°44' W 051°36'612.1
2019-Jun-11 13:00N 63°50' W 051°35'611.8
2019-Jun-11 12:30N 63°56' W 051°34'611.6
2019-Jun-11 12:00N 64°01' W 051°41'510.9
2019-Jun-11 11:31N 64°06' W 051°39'5 9.4
2019-Jun-11 11:00N 64°10' W 051°43'0 0.0
2019-Jun-11 10:30N 64°10' W 051°43'0 0.0
2019-Jun-11 10:00N 64°10' W 051°43'0 0.0
2019-Jun-11 09:30N 64°10' W 051°43'0 0.0
2019-Jun-11 09:00N 64°10' W 051°43'4 7.4
2019-Jun-11 08:30N 64°08' W 051°50'510.5
2019-Jun-11 08:00N 64°06' W 052°01'5 9.2
2019-Jun-11 07:30N 64°04' W 052°11'611.1
2019-Jun-11 07:01N 64°08' W 052°19'611.0
2019-Jun-11 06:30N 64°13' W 052°24'611.5
2019-Jun-11 06:00N 64°19' W 052°27'611.3
2019-Jun-11 05:30N 64°24' W 052°30'611.4
2019-Jun-11 05:00N 64°30' W 052°33'611.4
2019-Jun-11 04:30N 64°36' W 052°36'611.3
2019-Jun-11 04:00N 64°41' W 052°38'511.0
2019-Jun-11 03:30N 64°47' W 052°41'611.2
2019-Jun-11 03:00N 64°52' W 052°43'611.2
2019-Jun-11 02:30N 64°58' W 052°45'510.9
2019-Jun-11 02:00N 65°03' W 052°48'611.1
2019-Jun-11 01:31N 65°08' W 052°50'611.3
2019-Jun-11 01:00N 65°14' W 052°51'611.4
2019-Jun-11 00:30N 65°20' W 052°51'510.0
2019-Jun-11 00:00N 65°25' W 052°54'0 0.0
2019-Jun-10 23:30N 65°25' W 052°54'3 5.6
2019-Jun-10 23:00N 65°27' W 052°52'711.6
2019-Jun-10 22:27N 65°34' W 052°50'14 9.5
2019-Jun-10 20:59N 65°40' W 053°20'611.6
2019-Jun-10 20:30N 65°46' W 053°19'9 5.7
2019-Jun-10 18:52N 65°53' W 053°33'2 0.0
2019-Jun-08 14:57N 65°51' W 053°29'5 2.8
2019-Jun-08 13:06N 65°48' W 053°19'910.8
2019-Jun-08 12:19N 65°40' W 053°18'18 8.0
2019-Jun-08 10:02N 65°25' W 052°54'0 1.3
2019-Jun-08 10:00N 65°25' W 052°54'0 0.0
2019-Jun-08 09:30N 65°25' W 052°54'0 0.0
2019-Jun-08 09:00N 65°25' W 052°54'14 8.4
2019-Jun-08 07:21N 65°11' W 052°51'410.5
2019-Jun-08 07:00N 65°07' W 052°50'510.8
2019-Jun-08 06:31N 65°02' W 052°47'510.2
2019-Jun-08 06:00N 64°57' W 052°45'510.0
2019-Jun-08 05:30N 64°52' W 052°43'510.2
2019-Jun-08 05:00N 64°47' W 052°41'5 9.9
2019-Jun-08 04:30N 64°42' W 052°39'5 9.8
2019-Jun-08 04:00N 64°37' W 052°36'5 9.4
2019-Jun-08 03:30N 64°33' W 052°34'5 9.9
2019-Jun-08 03:00N 64°28' W 052°32'510.2
2019-Jun-08 02:30N 64°23' W 052°30'510.2
2019-Jun-08 02:00N 64°18' W 052°27'510.2
2019-Jun-08 01:30N 64°13' W 052°24'510.2
2019-Jun-08 01:00N 64°08' W 052°19'510.2
2019-Jun-08 00:30N 64°04' W 052°11'4 8.4
2019-Jun-08 00:00N 64°05' W 052°02'510.5
2019-Jun-07 23:30N 64°08' W 051°51'4 8.6
2019-Jun-07 23:00N 64°10' W 051°43'0 0.0
2019-Jun-07 22:30N 64°10' W 051°43'0 0.0
2019-Jun-07 22:00N 64°10' W 051°43'0 0.0
2019-Jun-07 21:30N 64°10' W 051°43'0 0.0
2019-Jun-07 21:00N 64°10' W 051°43'0 0.0
2019-Jun-07 20:31N 64°10' W 051°43'0 0.0
2019-Jun-07 20:00N 64°10' W 051°43'0 0.0
2019-Jun-07 19:30N 64°10' W 051°43'0 0.0
2019-Jun-07 19:00N 64°10' W 051°43'0 0.0
2019-Jun-07 18:30N 64°10' W 051°43'0 0.0
2019-Jun-07 18:00N 64°10' W 051°43'0 0.0
2019-Jun-07 17:30N 64°10' W 051°43'0 0.0
2019-Jun-07 17:00N 64°10' W 051°43'0 0.0
2019-Jun-07 16:30N 64°10' W 051°43'0 0.0
2019-Jun-07 16:00N 64°10' W 051°43'0 0.0
2019-Jun-07 15:30N 64°10' W 051°43'0 0.0
2019-Jun-07 15:00N 64°10' W 051°43'0 0.0
2019-Jun-07 14:30N 64°10' W 051°43'0 0.0
2019-Jun-07 14:00N 64°10' W 051°43'0 0.0
2019-Jun-07 13:30N 64°10' W 051°43'0 0.0
2019-Jun-07 13:00N 64°10' W 051°43'0 0.0
2019-Jun-07 12:30N 64°10' W 051°43'0 0.0
2019-Jun-07 12:01N 64°10' W 051°43'0 0.0
2019-Jun-07 11:30N 64°10' W 051°43'0 0.0
2019-Jun-07 11:01N 64°10' W 051°43'0 0.0
2019-Jun-07 10:30N 64°10' W 051°43'0 0.0
2019-Jun-07 10:00N 64°10' W 051°43'0 0.0
2019-Jun-07 09:30N 64°10' W 051°43'4 7.0
2019-Jun-07 09:00N 64°07' W 051°40'5 9.7
2019-Jun-07 08:30N 64°02' W 051°39'5 9.6
2019-Jun-07 08:00N 63°58' W 051°38'5 9.5
2019-Jun-07 07:30N 63°53' W 051°34'510.2
2019-Jun-07 07:00N 63°48' W 051°35'5 9.9
2019-Jun-07 06:30N 63°43' W 051°37'  
Track history (hours):
 
Tides and Currents Weather Stations Pressure Air Temp Water Temp Dewpoint Dewpoint Depression Visibility Wind Speed Wind Dir Waves Ship Positions

Sarfaq Ittuk

Last reported at 2019-Jun-15 14:18 UTC. Time now 2019-Jun-17 19:35 UTC.
Position N 65°52' W 053°32'.

Length 73 m; beam 11.1 m; draft 3.7 m.

Type: Passenger vessel. MMSI: 331000499.

Date/timePositionNaut miles runAvg speedWind from/ knotsBaromVisibWave heightAir tempDewpointWater temp
2019-Jun-15 14:18N 65°52' W 053°32'6 5.2
2019-Jun-15 13:05N 65°49' W 053°19'910.9
2019-Jun-15 12:17N 65°40' W 053°18'512.4
2019-Jun-15 11:54N 65°39' W 053°07'15 8.1
2019-Jun-15 10:02N 65°25' W 052°54'0 1.8
2019-Jun-15 10:00N 65°25' W 052°54'0 0.0
2019-Jun-15 09:26N 65°25' W 052°54'0 0.0
2019-Jun-15 08:55N 65°25' W 052°54'11 9.0
2019-Jun-15 07:42N 65°14' W 052°51'4 9.5
2019-Jun-15 07:17N 65°10' W 052°51'3 9.6
2019-Jun-15 07:00N 65°07' W 052°50'5 9.1
2019-Jun-15 06:30N 65°03' W 052°48'5 9.6
2019-Jun-15 06:00N 64°58' W 052°46'5 9.9
2019-Jun-15 05:30N 64°53' W 052°44'5 9.9
2019-Jun-15 05:00N 64°48' W 052°41'5 9.9
2019-Jun-15 04:30N 64°44' W 052°39'510.1
2019-Jun-15 04:00N 64°39' W 052°37'5 9.9
2019-Jun-15 03:30N 64°34' W 052°35'5 9.9
2019-Jun-15 03:00N 64°29' W 052°33'5 9.8
2019-Jun-15 02:30N 64°24' W 052°30'5 9.7
2019-Jun-15 02:01N 64°19' W 052°27'5 9.6
2019-Jun-15 01:30N 64°15' W 052°25'5 9.6
2019-Jun-15 01:00N 64°10' W 052°22'511.0
2019-Jun-15 00:31N 64°06' W 052°14'4 8.9
2019-Jun-15 00:01N 64°05' W 052°04'612.5
2019-Jun-14 23:31N 64°08' W 051°51'4 8.6
2019-Jun-14 23:00N 64°10' W 051°43'0 0.0
2019-Jun-14 22:30N 64°10' W 051°43'0 0.0
2019-Jun-14 22:00N 64°10' W 051°43'0 0.0
2019-Jun-14 21:30N 64°10' W 051°43'0 0.0
2019-Jun-14 21:01N 64°10' W 051°43'0 0.0
2019-Jun-14 20:30N 64°10' W 051°43'0 0.0
2019-Jun-14 20:00N 64°10' W 051°43'0 0.0
2019-Jun-14 19:30N 64°10' W 051°43'0 0.0
2019-Jun-14 19:00N 64°10' W 051°43'0 0.0
2019-Jun-14 18:30N 64°10' W 051°43'0 0.0
2019-Jun-14 18:01N 64°10' W 051°43'0 0.0
2019-Jun-14 17:31N 64°10' W 051°43'0 0.0
2019-Jun-14 17:01N 64°10' W 051°43'0 0.0
2019-Jun-14 16:30N 64°10' W 051°43'0 0.0
2019-Jun-14 16:00N 64°10' W 051°43'0 0.0
2019-Jun-14 15:30N 64°10' W 051°43'0 0.0
2019-Jun-14 15:00N 64°10' W 051°43'0 0.0
2019-Jun-14 14:30N 64°10' W 051°43'0 0.0
2019-Jun-14 14:00N 64°10' W 051°43'0 0.0
2019-Jun-14 13:30N 64°10' W 051°43'0 0.0
2019-Jun-14 13:00N 64°10' W 051°43'0 0.0
2019-Jun-14 12:31N 64°10' W 051°43'0 0.0
2019-Jun-14 12:00N 64°10' W 051°43'0 0.0
2019-Jun-14 11:30N 64°10' W 051°43'0 0.0
2019-Jun-14 11:00N 64°10' W 051°43'0 0.0
2019-Jun-14 10:30N 64°10' W 051°43'0 0.0
2019-Jun-14 10:00N 64°10' W 051°43'0 0.0
2019-Jun-14 09:30N 64°10' W 051°43'3 7.0
2019-Jun-14 09:00N 64°07' W 051°40'510.1
2019-Jun-14 08:30N 64°02' W 051°39'5 9.7
2019-Jun-14 08:01N 63°57' W 051°37'510.1
2019-Jun-14 07:30N 63°53' W 051°34'5 9.6
2019-Jun-14 07:00N 63°48' W 051°35'510.4
2019-Jun-14 06:30N 63°43' W 051°37'  
2019-Jun-11 15:06N 63°26' W 051°30'312.0
2019-Jun-11 14:49N 63°29' W 051°33'1511.5
2019-Jun-11 13:28N 63°44' W 051°36'612.1
2019-Jun-11 13:00N 63°50' W 051°35'611.8
2019-Jun-11 12:30N 63°56' W 051°34'611.6
2019-Jun-11 12:00N 64°01' W 051°41'510.9
2019-Jun-11 11:31N 64°06' W 051°39'5 9.4
2019-Jun-11 11:00N 64°10' W 051°43'0 0.0
2019-Jun-11 10:30N 64°10' W 051°43'0 0.0
2019-Jun-11 10:00N 64°10' W 051°43'0 0.0
2019-Jun-11 09:30N 64°10' W 051°43'0 0.0
2019-Jun-11 09:00N 64°10' W 051°43'4 7.4
2019-Jun-11 08:30N 64°08' W 051°50'510.5
2019-Jun-11 08:00N 64°06' W 052°01'5 9.2
2019-Jun-11 07:30N 64°04' W 052°11'611.1
2019-Jun-11 07:01N 64°08' W 052°19'611.0
2019-Jun-11 06:30N 64°13' W 052°24'611.5
2019-Jun-11 06:00N 64°19' W 052°27'611.3
2019-Jun-11 05:30N 64°24' W 052°30'611.4
2019-Jun-11 05:00N 64°30' W 052°33'611.4
2019-Jun-11 04:30N 64°36' W 052°36'611.3
2019-Jun-11 04:00N 64°41' W 052°38'511.0
2019-Jun-11 03:30N 64°47' W 052°41'611.2
2019-Jun-11 03:00N 64°52' W 052°43'611.2
2019-Jun-11 02:30N 64°58' W 052°45'510.9
2019-Jun-11 02:00N 65°03' W 052°48'611.1
2019-Jun-11 01:31N 65°08' W 052°50'611.3
2019-Jun-11 01:00N 65°14' W 052°51'611.4
2019-Jun-11 00:30N 65°20' W 052°51'510.0
2019-Jun-11 00:00N 65°25' W 052°54'0 0.0
2019-Jun-10 23:30N 65°25' W 052°54'3 5.6
2019-Jun-10 23:00N 65°27' W 052°52'711.6
2019-Jun-10 22:27N 65°34' W 052°50'14 9.5
2019-Jun-10 20:59N 65°40' W 053°20'611.6
2019-Jun-10 20:30N 65°46' W 053°19'9 5.7
2019-Jun-10 18:52N 65°53' W 053°33'2 0.0
2019-Jun-08 14:57N 65°51' W 053°29'5 2.8
2019-Jun-08 13:06N 65°48' W 053°19'910.8
2019-Jun-08 12:19N 65°40' W 053°18'18 8.0
2019-Jun-08 10:02N 65°25' W 052°54'0 1.3
2019-Jun-08 10:00N 65°25' W 052°54'0 0.0
2019-Jun-08 09:30N 65°25' W 052°54'0 0.0
2019-Jun-08 09:00N 65°25' W 052°54'14 8.4
2019-Jun-08 07:21N 65°11' W 052°51'410.5
2019-Jun-08 07:00N 65°07' W 052°50'510.8
2019-Jun-08 06:31N 65°02' W 052°47'510.2
2019-Jun-08 06:00N 64°57' W 052°45'510.0
2019-Jun-08 05:30N 64°52' W 052°43'510.2
2019-Jun-08 05:00N 64°47' W 052°41'5 9.9
2019-Jun-08 04:30N 64°42' W 052°39'5 9.8
2019-Jun-08 04:00N 64°37' W 052°36'5 9.4
2019-Jun-08 03:30N 64°33' W 052°34'5 9.9
2019-Jun-08 03:00N 64°28' W 052°32'510.2
2019-Jun-08 02:30N 64°23' W 052°30'510.2
2019-Jun-08 02:00N 64°18' W 052°27'510.2
2019-Jun-08 01:30N 64°13' W 052°24'510.2
2019-Jun-08 01:00N 64°08' W 052°19'510.2
2019-Jun-08 00:30N 64°04' W 052°11'4 8.4
2019-Jun-08 00:00N 64°05' W 052°02'510.5
2019-Jun-07 23:30N 64°08' W 051°51'4 8.6
2019-Jun-07 23:00N 64°10' W 051°43'0 0.0
2019-Jun-07 22:30N 64°10' W 051°43'0 0.0
2019-Jun-07 22:00N 64°10' W 051°43'0 0.0
2019-Jun-07 21:30N 64°10' W 051°43'0 0.0
2019-Jun-07 21:00N 64°10' W 051°43'0 0.0
2019-Jun-07 20:31N 64°10' W 051°43'0 0.0
2019-Jun-07 20:00N 64°10' W 051°43'0 0.0
2019-Jun-07 19:30N 64°10' W 051°43'0 0.0
2019-Jun-07 19:00N 64°10' W 051°43'0 0.0
2019-Jun-07 18:30N 64°10' W 051°43'0 0.0
2019-Jun-07 18:00N 64°10' W 051°43'0 0.0
2019-Jun-07 17:30N 64°10' W 051°43'0 0.0
2019-Jun-07 17:00N 64°10' W 051°43'0 0.0
2019-Jun-07 16:30N 64°10' W 051°43'0 0.0
2019-Jun-07 16:00N 64°10' W 051°43'0 0.0
2019-Jun-07 15:30N 64°10' W 051°43'0 0.0
2019-Jun-07 15:00N 64°10' W 051°43'0 0.0
2019-Jun-07 14:30N 64°10' W 051°43'0 0.0
2019-Jun-07 14:00N 64°10' W 051°43'0 0.0
2019-Jun-07 13:30N 64°10' W 051°43'0 0.0
2019-Jun-07 13:00N 64°10' W 051°43'0 0.0
2019-Jun-07 12:30N 64°10' W 051°43'0 0.0
2019-Jun-07 12:01N 64°10' W 051°43'0 0.0
2019-Jun-07 11:30N 64°10' W 051°43'0 0.0
2019-Jun-07 11:01N 64°10' W 051°43'0 0.0
2019-Jun-07 10:30N 64°10' W 051°43'0 0.0
2019-Jun-07 10:00N 64°10' W 051°43'0 0.0
2019-Jun-07 09:30N 64°10' W 051°43'4 7.0
2019-Jun-07 09:00N 64°07' W 051°40'5 9.7
2019-Jun-07 08:30N 64°02' W 051°39'5 9.6
2019-Jun-07 08:00N 63°58' W 051°38'5 9.5
2019-Jun-07 07:30N 63°53' W 051°34'510.2
2019-Jun-07 07:00N 63°48' W 051°35'5 9.9
2019-Jun-07 06:30N 63°43' W 051°37'  

Dump ship's entire track history